STN weather

London Stansted Airport
London, England, United Kingdom

Public forecast

Using degrees Celsius for public forecast. Weather courtesy of forecast.io.

METAR (pilot weather report)

Retrieved 2018/08/16 04:50 UTC (12 minutes ago):

EGSS 160450Z AUTO 21015KT 9999 BKN015 OVC021 18/15 Q1012

TAF (pilot weather forecast)

Forecast is more than 12 hours old.

Retrieved 2018/08/15 00:15 UTC (1 day ago):

TAF EGSS 152252Z 1600/1706 21012KT 9999 SCT035 TEMPO 1608/1615 6000 RA BKN010 PROB40 TEMPO 1608/1615 4000 +RA BKN006 BECMG 1612/1615 27008KT PROB30 1622/1706 BR MIFG